createdAt,value
2022-11-17T00:00:06.014Z,84.05
2022-11-17T00:02:35.253Z,83.95
2022-11-17T00:05:03.208Z,84.52
2022-11-17T00:07:31.299Z,84.01
2022-11-17T00:09:59.138Z,84.13
2022-11-17T00:12:44.867Z,84.80
2022-11-17T00:15:12.756Z,84.34
2022-11-17T00:17:41.956Z,84.26
2022-11-17T00:20:25.786Z,84.66
2022-11-17T00:22:53.681Z,84.83
2022-11-17T00:25:21.483Z,85.52
2022-11-17T00:27:49.452Z,85.32
2022-11-17T00:30:31.220Z,85.43
2022-11-17T00:33:20.805Z,85.56
2022-11-17T00:35:53.098Z,86.07
2022-11-17T00:38:21.623Z,86.03
2022-11-17T00:40:49.439Z,85.78
2022-11-17T00:43:17.333Z,86.08
2022-11-17T00:45:45.316Z,85.96
2022-11-17T00:48:14.707Z,86.35
2022-11-17T00:50:42.711Z,86.46
2022-11-17T00:53:10.700Z,86.61
2022-11-17T00:55:38.636Z,86.74
2022-11-17T00:58:06.485Z,86.97
2022-11-17T01:00:34.587Z,86.85
2022-11-17T01:03:02.406Z,86.51
2022-11-17T01:05:33.197Z,87.07
2022-11-17T01:08:01.324Z,87.03
2022-11-17T01:10:29.124Z,86.98
2022-11-17T01:12:56.911Z,87.09
2022-11-17T01:15:24.941Z,86.62
2022-11-17T01:17:52.773Z,87.36
2022-11-17T01:20:20.907Z,87.44
2022-11-17T01:22:50.249Z,86.84
2022-11-17T01:25:18.129Z,87.25
2022-11-17T01:27:45.936Z,87.49
2022-11-17T01:30:14.768Z,87.26
2022-11-17T01:32:42.545Z,86.99
2022-11-17T01:35:10.820Z,87.87
2022-11-17T01:37:39.039Z,87.36
2022-11-17T01:40:11.034Z,87.29
2022-11-17T01:42:38.921Z,87.65
2022-11-17T01:45:19.148Z,87.64
2022-11-17T01:47:51.097Z,87.79
2022-11-17T01:50:29.604Z,88.02
2022-11-17T01:53:00.143Z,88.08
2022-11-17T01:55:34.852Z,87.94
2022-11-17T01:58:09.284Z,87.64
2022-11-17T02:00:37.361Z,87.36
2022-11-17T02:03:07.347Z,88.41
2022-11-17T02:05:44.585Z,88.46
2022-11-17T02:08:13.351Z,87.93
2022-11-17T02:10:51.263Z,88.46
2022-11-17T02:13:20.432Z,88.42
2022-11-17T02:15:48.585Z,88.60
2022-11-17T02:18:17.507Z,88.44
2022-11-17T02:21:01.440Z,89.26
2022-11-17T02:23:57.320Z,89.23
2022-11-17T02:27:12.560Z,88.85
2022-11-17T02:29:50.342Z,88.49
2022-11-17T02:32:25.647Z,88.58
2022-11-17T02:35:02.915Z,89.00
2022-11-17T02:37:39.380Z,89.54
2022-11-17T02:40:11.808Z,89.48
2022-11-17T02:43:00.389Z,90.04
2022-11-17T02:45:35.832Z,90.34
2022-11-17T02:48:12.299Z,89.47
2022-11-17T02:50:41.327Z,89.82
2022-11-17T02:53:09.892Z,90.13
2022-11-17T02:55:38.933Z,89.99
2022-11-17T02:58:12.244Z,90.57
2022-11-17T03:00:51.147Z,91.13
2022-11-17T03:03:32.840Z,91.14
2022-11-17T03:06:08.779Z,90.91
2022-11-17T03:08:57.216Z,91.64
2022-11-17T03:11:33.520Z,91.81
2022-11-17T03:14:09.790Z,91.96
2022-11-17T03:16:44.347Z,91.64
2022-11-17T03:19:18.562Z,91.47
2022-11-17T03:21:49.544Z,91.17
2022-11-17T03:24:22.167Z,91.83
2022-11-17T03:26:53.804Z,91.18
2022-11-17T03:29:24.202Z,91.35
2022-11-17T03:31:58.432Z,91.43
2022-11-17T03:34:30.427Z,91.69
2022-11-17T03:37:03.768Z,91.84
2022-11-17T03:39:33.907Z,91.81
2022-11-17T03:42:07.806Z,92.15
2022-11-17T03:44:40.248Z,92.74
2022-11-17T03:47:13.808Z,92.97
2022-11-17T03:49:46.126Z,93.17
2022-11-17T03:52:13.947Z,93.00
2022-11-17T03:54:42.396Z,93.74
2022-11-17T03:57:15.985Z,93.84
2022-11-17T03:59:53.930Z,93.74
2022-11-17T04:02:24.859Z,94.19
2022-11-17T04:05:08.178Z,93.70
2022-11-17T04:07:37.515Z,93.92
2022-11-17T04:10:06.451Z,94.84
2022-11-17T04:12:51.961Z,94.54
2022-11-17T04:15:37.407Z,93.87
2022-11-17T04:18:07.395Z,93.97
2022-11-17T04:20:36.996Z,93.88
2022-11-17T04:23:08.520Z,94.14
2022-11-17T04:25:54.115Z,94.43
2022-11-17T04:28:38.237Z,94.35
2022-11-17T04:31:12.486Z,94.31
2022-11-17T04:33:44.211Z,93.95
2022-11-17T04:36:14.636Z,93.48
2022-11-17T04:38:43.729Z,94.10
2022-11-17T04:41:31.202Z,94.39
2022-11-17T04:43:59.495Z,94.25
2022-11-17T04:46:28.073Z,94.63
2022-11-17T04:48:58.553Z,94.92
2022-11-17T04:51:27.440Z,94.86
2022-11-17T04:53:55.723Z,95.11
2022-11-17T04:56:25.036Z,95.50
2022-11-17T04:58:53.891Z,95.33
2022-11-17T05:01:22.446Z,94.98
2022-11-17T05:03:52.280Z,95.20
2022-11-17T05:06:24.458Z,94.82
2022-11-17T05:08:55.726Z,94.27
2022-11-17T05:11:42.613Z,94.80
2022-11-17T05:14:11.546Z,94.37
2022-11-17T05:16:57.138Z,94.10
2022-11-17T05:19:26.937Z,94.29
2022-11-17T05:21:56.985Z,94.93
2022-11-17T05:24:23.811Z,95.00
2022-11-17T05:26:52.008Z,94.55
2022-11-17T05:29:21.848Z,94.56
2022-11-17T05:31:50.263Z,94.03
2022-11-17T05:34:19.106Z,94.34
2022-11-17T05:36:47.504Z,94.32
2022-11-17T05:39:16.760Z,94.85
2022-11-17T05:41:44.680Z,95.07
2022-11-17T05:44:12.613Z,95.67
2022-11-17T05:46:40.429Z,95.13
2022-11-17T05:49:08.420Z,95.26
2022-11-17T05:51:37.896Z,95.01
2022-11-17T05:54:06.047Z,95.80
2022-11-17T05:56:40.282Z,95.62
2022-11-17T05:59:17.209Z,95.48
2022-11-17T06:01:50.100Z,96.38
2022-11-17T06:04:20.648Z,96.25
2022-11-17T06:06:49.739Z,96.60
2022-11-17T06:09:18.107Z,96.36
2022-11-17T06:11:47.277Z,96.18
2022-11-17T06:14:15.303Z,96.22
2022-11-17T06:16:46.881Z,96.32
2022-11-17T06:19:21.141Z,96.70
2022-11-17T06:22:11.115Z,96.00
2022-11-17T06:24:38.876Z,95.82
2022-11-17T06:27:08.203Z,96.19
2022-11-17T06:29:39.467Z,96.54
2022-11-17T06:32:11.019Z,96.44
2022-11-17T06:34:38.928Z,96.39
2022-11-17T06:37:06.723Z,96.44
2022-11-17T06:39:34.818Z,96.69
2022-11-17T06:42:02.631Z,97.45
2022-11-17T06:44:31.786Z,97.36
2022-11-17T06:46:59.979Z,97.02
2022-11-17T06:49:27.823Z,97.84
2022-11-17T06:51:55.768Z,97.42
2022-11-17T06:54:23.930Z,97.29
2022-11-17T06:56:52.562Z,96.70
2022-11-17T06:59:20.410Z,97.04
2022-11-17T07:01:49.783Z,97.13
2022-11-17T07:04:17.658Z,97.51
2022-11-17T07:06:45.528Z,97.32
2022-11-17T07:09:13.726Z,97.49
2022-11-17T07:11:41.599Z,97.14
2022-11-17T07:14:09.725Z,97.94
2022-11-17T07:16:37.843Z,97.76
2022-11-17T07:19:08.468Z,97.85
2022-11-17T07:21:36.728Z,97.75
2022-11-17T07:24:04.941Z,97.67
2022-11-17T07:26:32.814Z,97.69
2022-11-17T07:29:01.282Z,97.99
2022-11-17T07:31:29.285Z,97.65
2022-11-17T07:33:57.138Z,97.89
2022-11-17T07:36:26.402Z,97.78
2022-11-17T07:38:54.526Z,97.89
2022-11-17T07:41:22.412Z,98.01
2022-11-17T07:43:50.287Z,98.14
2022-11-17T07:46:18.503Z,97.80
2022-11-17T07:48:46.345Z,97.45
2022-11-17T07:51:14.274Z,97.95
2022-11-17T07:53:43.737Z,98.19
2022-11-17T07:56:12.467Z,98.38
2022-11-17T07:58:41.018Z,98.33
2022-11-17T08:01:09.739Z,97.78
2022-11-17T08:03:39.321Z,97.84
2022-11-17T08:06:09.409Z,97.72
2022-11-17T08:08:38.202Z,98.34
2022-11-17T08:11:10.148Z,98.21
2022-11-17T08:13:39.026Z,98.96
2022-11-17T08:16:07.748Z,98.00
2022-11-17T08:18:36.724Z,98.07
2022-11-17T08:21:06.154Z,97.90
2022-11-17T08:23:35.637Z,96.86
2022-11-17T08:26:04.606Z,96.97
2022-11-17T08:28:34.821Z,96.82
2022-11-17T08:31:03.917Z,96.30
2022-11-17T08:33:32.028Z,96.43
2022-11-17T08:36:00.358Z,96.07
2022-11-17T08:38:29.296Z,96.42
2022-11-17T08:40:57.797Z,96.35
2022-11-17T08:43:26.016Z,96.38
2022-11-17T08:45:55.440Z,96.28
2022-11-17T08:48:24.081Z,95.90
2022-11-17T08:50:52.188Z,95.70
2022-11-17T08:53:22.368Z,95.90
2022-11-17T08:55:51.940Z,95.49
2022-11-17T08:58:20.138Z,95.46
2022-11-17T09:00:48.317Z,94.71
2022-11-17T09:03:17.698Z,94.33
2022-11-17T09:05:49.017Z,94.10
2022-11-17T09:08:44.406Z,93.73
2022-11-17T09:11:06.992Z,93.50
2022-11-17T09:13:34.942Z,93.13
2022-11-17T09:16:03.793Z,93.08
2022-11-17T09:18:33.289Z,92.89
2022-11-17T09:21:02.176Z,92.78
2022-11-17T09:23:31.680Z,92.47
2022-11-17T09:26:00.177Z,92.59
2022-11-17T09:28:28.476Z,91.94
2022-11-17T09:30:56.329Z,92.23
2022-11-17T09:33:24.361Z,92.27
2022-11-17T09:35:57.996Z,91.92
2022-11-17T09:38:25.945Z,92.00
2022-11-17T09:40:55.273Z,91.85
2022-11-17T09:43:28.416Z,91.71
2022-11-17T09:46:07.231Z,90.62
2022-11-17T09:48:42.475Z,90.62
2022-11-17T09:51:19.549Z,90.44
2022-11-17T09:53:55.438Z,89.97
2022-11-17T09:56:23.472Z,89.74
2022-11-17T09:58:56.381Z,89.52
2022-11-17T10:01:24.892Z,89.69
2022-11-17T10:03:53.631Z,89.66
2022-11-17T10:06:25.079Z,88.79
2022-11-17T10:09:00.410Z,88.55
2022-11-17T10:11:35.314Z,88.02
2022-11-17T10:14:11.798Z,87.90
2022-11-17T10:16:42.007Z,87.31
2022-11-17T10:19:16.820Z,86.51
2022-11-17T10:21:47.141Z,86.48
2022-11-17T10:24:34.533Z,85.58
2022-11-17T10:27:03.854Z,86.13
2022-11-17T10:29:31.909Z,86.01
2022-11-17T10:31:59.883Z,85.98
2022-11-17T10:34:38.779Z,84.91
2022-11-17T10:37:26.681Z,84.20
2022-11-17T10:40:13.930Z,83.46
2022-11-17T10:42:53.849Z,83.01
2022-11-17T10:45:22.042Z,82.75
2022-11-17T10:47:49.947Z,82.27
2022-11-17T10:50:24.379Z,81.90
2022-11-17T10:52:55.741Z,81.86
2022-11-17T10:55:29.168Z,81.78
2022-11-17T10:58:02.273Z,82.05
2022-11-17T11:00:33.054Z,82.39
2022-11-17T11:03:22.453Z,82.50
2022-11-17T11:05:59.240Z,82.18
2022-11-17T11:08:33.426Z,82.25
2022-11-17T11:11:03.985Z,81.71
2022-11-17T11:13:38.451Z,80.88
2022-11-17T11:16:07.336Z,81.17
2022-11-17T11:18:35.262Z,80.65
2022-11-17T11:21:12.663Z,80.10
2022-11-17T11:23:55.773Z,79.39
2022-11-17T11:26:44.176Z,78.56
2022-11-17T11:29:23.165Z,78.34
2022-11-17T11:32:02.317Z,77.34
2022-11-17T11:34:53.243Z,76.69
2022-11-17T11:37:26.530Z,77.08
2022-11-17T11:40:04.284Z,76.52
2022-11-17T11:42:47.676Z,75.93
2022-11-17T11:45:24.242Z,75.98
2022-11-17T11:48:23.313Z,75.29
2022-11-17T11:50:56.213Z,75.24
2022-11-17T11:53:29.922Z,75.42
2022-11-17T11:56:10.601Z,75.35
2022-11-17T11:58:44.315Z,75.41
2022-11-17T12:01:14.349Z,75.44
2022-11-17T12:03:50.168Z,74.70
2022-11-17T12:06:43.001Z,74.93
2022-11-17T12:09:29.164Z,74.97
2022-11-17T12:12:02.788Z,75.14
2022-11-17T12:14:32.602Z,74.93
2022-11-17T12:17:07.450Z,74.73
2022-11-17T12:19:55.387Z,74.53
2022-11-17T12:22:56.040Z,75.31
2022-11-17T12:25:29.471Z,75.15
2022-11-17T12:27:58.944Z,75.15
2022-11-17T12:30:59.037Z,74.93
2022-11-17T12:34:14.783Z,74.97
2022-11-17T12:36:42.936Z,75.26
2022-11-17T12:39:52.120Z,75.15
2022-11-17T12:42:20.196Z,75.45
2022-11-17T12:44:57.049Z,75.59
2022-11-17T12:47:30.072Z,75.68
2022-11-17T12:50:27.429Z,76.11
2022-11-17T12:53:07.753Z,76.17
2022-11-17T12:55:48.846Z,76.38
2022-11-17T12:58:24.178Z,76.96
2022-11-17T13:01:04.024Z,77.43
2022-11-17T13:03:42.472Z,77.60
2022-11-17T13:09:01.784Z,78.23
2022-11-17T13:11:30.194Z,78.87
2022-11-17T13:14:12.446Z,78.78
2022-11-17T13:16:47.313Z,79.43
2022-11-17T13:19:33.018Z,79.36
2022-11-17T13:22:03.739Z,79.57
2022-11-17T13:24:34.575Z,79.39
2022-11-17T13:27:04.010Z,79.46
2022-11-17T13:29:31.933Z,79.16
2022-11-17T13:32:20.361Z,79.48
2022-11-17T13:34:53.918Z,79.75
2022-11-17T13:37:24.574Z,79.88
2022-11-17T13:40:01.807Z,80.71
2022-11-17T13:42:32.853Z,80.60
2022-11-17T13:45:04.000Z,81.03
2022-11-17T13:47:51.560Z,81.71
2022-11-17T13:50:35.240Z,81.86
2022-11-17T13:53:06.284Z,81.96
2022-11-17T13:55:35.355Z,81.92
2022-11-17T13:58:06.363Z,82.00
2022-11-17T14:00:35.101Z,82.09
2022-11-17T14:03:07.064Z,82.43
2022-11-17T14:05:35.348Z,82.55
2022-11-17T14:08:14.226Z,82.41
2022-11-17T14:10:42.713Z,82.67
2022-11-17T14:13:31.057Z,82.68
2022-11-17T14:16:01.249Z,82.81
2022-11-17T14:18:34.343Z,83.02
2022-11-17T14:21:10.807Z,82.71
2022-11-17T14:23:39.225Z,82.95
2022-11-17T14:26:07.878Z,82.47
2022-11-17T14:28:35.713Z,82.29
2022-11-17T14:31:03.708Z,82.21
2022-11-17T14:33:32.930Z,81.83
2022-11-17T14:36:01.023Z,81.74
2022-11-17T14:38:29.448Z,81.57
2022-11-17T14:40:57.420Z,81.41
2022-11-17T14:43:26.304Z,81.26
2022-11-17T14:45:54.372Z,81.33
2022-11-17T14:48:22.400Z,80.81
2022-11-17T14:50:57.350Z,81.07
2022-11-17T14:53:25.622Z,80.81
2022-11-17T14:55:53.917Z,81.13
2022-11-17T14:58:21.901Z,81.25
2022-11-17T15:00:49.757Z,81.27
2022-11-17T15:03:17.786Z,81.28
2022-11-17T15:05:46.944Z,81.08
2022-11-17T15:08:16.117Z,80.55
2022-11-17T15:10:45.348Z,80.54
2022-11-17T15:13:13.362Z,80.77
2022-11-17T15:15:41.436Z,81.00
2022-11-17T15:18:11.837Z,80.90
2022-11-17T15:20:39.876Z,81.61
2022-11-17T15:23:08.310Z,81.59
2022-11-17T15:25:38.833Z,81.61
2022-11-17T15:28:06.994Z,81.55
2022-11-17T15:30:34.835Z,81.05
2022-11-17T15:33:02.922Z,80.83
2022-11-17T15:35:30.920Z,80.89
2022-11-17T15:37:58.762Z,81.70
2022-11-17T15:40:26.696Z,81.66
2022-11-17T15:42:56.048Z,81.71
2022-11-17T15:45:23.911Z,81.59
2022-11-17T15:47:51.924Z,82.22
2022-11-17T15:50:20.547Z,82.40
2022-11-17T15:53:03.643Z,82.32
2022-11-17T15:55:34.480Z,82.64
2022-11-17T15:58:03.662Z,83.09
2022-11-17T16:00:33.818Z,82.95
2022-11-17T16:03:01.974Z,83.82
2022-11-17T16:05:31.430Z,83.74
2022-11-17T16:07:59.295Z,83.45
2022-11-17T16:10:27.608Z,83.40
2022-11-17T16:12:56.434Z,84.06
2022-11-17T16:15:25.972Z,84.17
2022-11-17T16:17:54.319Z,84.33
2022-11-17T16:20:22.242Z,84.65
2022-11-17T16:22:50.118Z,84.50
2022-11-17T16:25:18.296Z,84.33
2022-11-17T16:27:46.161Z,84.38
2022-11-17T16:30:14.900Z,84.26
2022-11-17T16:32:44.258Z,84.22
2022-11-17T16:35:12.112Z,83.96
2022-11-17T16:37:39.951Z,84.51
2022-11-17T16:40:08.624Z,84.06
2022-11-17T16:42:36.861Z,83.85
2022-11-17T16:45:05.043Z,84.43
2022-11-17T16:47:33.738Z,84.54
2022-11-17T16:50:04.021Z,83.97
2022-11-17T16:52:31.883Z,84.52
2022-11-17T16:55:04.532Z,84.75
2022-11-17T16:57:33.013Z,84.28
2022-11-17T17:00:01.188Z,84.95
2022-11-17T17:02:29.079Z,84.19
2022-11-17T17:04:56.974Z,84.19
2022-11-17T17:07:26.494Z,84.26
2022-11-17T17:09:54.378Z,84.32
2022-11-17T17:12:22.221Z,84.43
2022-11-17T17:14:50.178Z,84.61
2022-11-17T17:17:17.988Z,85.00
2022-11-17T17:19:45.856Z,84.36
2022-11-17T17:22:13.895Z,84.60
2022-11-17T17:24:43.189Z,84.31
2022-11-17T17:27:11.035Z,84.39
2022-11-17T17:29:39.066Z,84.98
2022-11-17T17:32:06.961Z,85.17
2022-11-17T17:34:34.827Z,85.02
2022-11-17T17:37:03.008Z,85.08
2022-11-17T17:39:30.828Z,84.87
2022-11-17T17:42:00.032Z,85.15
2022-11-17T17:44:28.205Z,85.23
2022-11-17T17:46:57.864Z,85.54
2022-11-17T17:49:25.957Z,85.57
2022-11-17T17:51:54.092Z,84.85
2022-11-17T17:54:24.083Z,85.32
2022-11-17T17:56:52.784Z,85.42
2022-11-17T17:59:22.281Z,85.56
2022-11-17T18:01:50.172Z,85.44
2022-11-17T18:04:18.026Z,85.22
2022-11-17T18:06:48.389Z,85.27
2022-11-17T18:09:19.379Z,85.45
2022-11-17T18:11:50.257Z,85.72
2022-11-17T18:14:22.436Z,86.04
2022-11-17T18:16:52.771Z,86.07
2022-11-17T18:19:21.141Z,86.37
2022-11-17T18:21:48.974Z,86.57
2022-11-17T18:24:17.084Z,86.68
2022-11-17T18:26:45.017Z,86.91
2022-11-17T18:29:16.186Z,86.75
2022-11-17T18:31:46.915Z,86.70
2022-11-17T18:34:18.838Z,87.24
2022-11-17T18:36:46.949Z,86.75
2022-11-17T18:39:16.222Z,86.69
2022-11-17T18:41:44.343Z,87.10
2022-11-17T18:44:13.813Z,87.69
2022-11-17T18:46:41.798Z,88.02
2022-11-17T18:49:10.149Z,87.92
2022-11-17T18:51:39.509Z,88.44
2022-11-17T18:54:07.971Z,88.05
2022-11-17T18:56:37.457Z,88.67
2022-11-17T18:59:11.683Z,88.37
2022-11-17T19:01:41.156Z,88.41
2022-11-17T19:04:09.481Z,88.93
2022-11-17T19:06:37.411Z,88.71
2022-11-17T19:09:06.856Z,88.64
2022-11-17T19:11:35.021Z,89.64
2022-11-17T19:14:04.324Z,89.10
2022-11-17T19:16:33.354Z,89.44
2022-11-17T19:19:01.455Z,90.21
2022-11-17T19:21:30.885Z,90.34
2022-11-17T19:24:00.412Z,90.77
2022-11-17T19:26:31.546Z,91.14
2022-11-17T19:29:01.031Z,91.10
2022-11-17T19:31:29.440Z,91.10
2022-11-17T19:33:59.838Z,91.42
2022-11-17T19:36:29.621Z,91.52
2022-11-17T19:38:59.281Z,91.58
2022-11-17T19:41:30.698Z,92.18
2022-11-17T19:43:59.888Z,92.02
2022-11-17T19:46:29.330Z,91.54
2022-11-17T19:48:58.064Z,92.44
2022-11-17T19:51:28.013Z,91.98
2022-11-17T19:53:57.231Z,92.72
2022-11-17T19:56:26.442Z,92.07
2022-11-17T19:58:55.857Z,92.74
2022-11-17T20:01:25.351Z,92.34
2022-11-17T20:03:53.899Z,92.13
2022-11-17T20:06:24.096Z,93.01
2022-11-17T20:08:51.917Z,92.95
2022-11-17T20:11:21.391Z,92.89
2022-11-17T20:13:50.128Z,92.81
2022-11-17T20:16:21.398Z,92.63
2022-11-17T20:18:52.015Z,93.48
2022-11-17T20:21:20.593Z,93.43
2022-11-17T20:23:48.483Z,93.19
2022-11-17T20:26:18.813Z,93.47
2022-11-17T20:28:47.864Z,94.08
2022-11-17T20:31:17.571Z,93.95
2022-11-17T20:33:47.721Z,93.60
2022-11-17T20:36:18.017Z,94.19
2022-11-17T20:38:46.691Z,94.08
2022-11-17T20:41:14.572Z,94.02
2022-11-17T20:43:42.393Z,94.12
2022-11-17T20:46:10.531Z,93.93
2022-11-17T20:48:38.388Z,94.02
2022-11-17T20:51:08.942Z,94.33
2022-11-17T20:53:36.764Z,93.95
2022-11-17T20:56:06.694Z,94.12
2022-11-17T20:58:35.777Z,94.47
2022-11-17T21:01:09.550Z,94.76
2022-11-17T21:03:37.546Z,94.90
2022-11-17T21:06:07.892Z,94.58
2022-11-17T21:08:37.397Z,95.25
2022-11-17T21:11:07.417Z,95.36
2022-11-17T21:13:36.920Z,95.52
2022-11-17T21:16:07.220Z,95.15
2022-11-17T21:18:36.071Z,95.13
2022-11-17T21:21:08.806Z,95.63
2022-11-17T21:23:39.659Z,95.23
2022-11-17T21:26:08.351Z,95.48
2022-11-17T21:28:37.057Z,95.87
2022-11-17T21:31:07.941Z,95.25
2022-11-17T21:33:36.166Z,95.90
2022-11-17T21:36:04.745Z,95.25
2022-11-17T21:38:33.145Z,95.46
2022-11-17T21:41:06.420Z,95.38
2022-11-17T21:43:37.542Z,95.33
2022-11-17T21:46:06.846Z,96.04
2022-11-17T21:48:35.948Z,96.27
2022-11-17T21:51:03.840Z,96.22
2022-11-17T21:53:31.865Z,95.58
2022-11-17T21:56:03.390Z,96.48
2022-11-17T21:58:33.469Z,95.69
2022-11-17T22:01:07.788Z,96.21
2022-11-17T22:03:35.858Z,96.62
2022-11-17T22:06:08.714Z,96.38
2022-11-17T22:08:38.669Z,97.00
2022-11-17T22:11:08.221Z,96.71
2022-11-17T22:13:37.939Z,97.14
2022-11-17T22:16:08.946Z,97.29
2022-11-17T22:18:37.029Z,97.20
2022-11-17T22:21:05.870Z,96.97
2022-11-17T22:23:34.408Z,97.73
2022-11-17T22:26:04.825Z,97.60
2022-11-17T22:28:33.207Z,97.51
2022-11-17T22:31:06.728Z,97.65
2022-11-17T22:33:34.943Z,97.30
2022-11-17T22:36:03.837Z,97.28
2022-11-17T22:38:31.960Z,98.24
2022-11-17T22:41:01.370Z,97.91
2022-11-17T22:43:29.446Z,98.45
2022-11-17T22:45:57.828Z,98.31
2022-11-17T22:48:27.254Z,98.19
2022-11-17T22:50:58.627Z,98.55
2022-11-17T22:53:26.863Z,99.06
2022-11-17T22:55:55.181Z,98.91
2022-11-17T22:58:23.017Z,99.38
2022-11-17T23:00:53.012Z,99.29
2022-11-17T23:03:21.022Z,99.40
2022-11-17T23:05:50.343Z,98.73
2022-11-17T23:08:18.340Z,99.22
2022-11-17T23:10:46.617Z,99.46
2022-11-17T23:13:14.489Z,99.57
2022-11-17T23:15:42.493Z,99.30
2022-11-17T23:18:10.550Z,98.92
2022-11-17T23:20:38.597Z,99.58
2022-11-17T23:23:07.957Z,99.24
2022-11-17T23:25:37.092Z,99.42
2022-11-17T23:28:05.145Z,99.38
2022-11-17T23:30:33.743Z,99.47
2022-11-17T23:33:01.795Z,99.83
2022-11-17T23:35:29.617Z,99.57
2022-11-17T23:37:58.888Z,100.00
2022-11-17T23:40:28.288Z,100.00
2022-11-17T23:42:56.158Z,100.00
2022-11-17T23:45:24.123Z,100.00
2022-11-17T23:47:52.010Z,100.00
2022-11-17T23:50:20.174Z,100.00
2022-11-17T23:52:48.042Z,100.00
2022-11-17T23:55:15.931Z,100.00
2022-11-17T23:57:45.124Z,100.00
